Jonathan Thompson

Scout - Millwall
14 Okt 2027
Donnerstag
Verarbeitung

Persönlichkeit

Anpassungsfähigkeit (18) Ehrgeiz (4) Kontroverse (1) Loyalität (20) Druck (18) Professionalität (20) Fairness (13) Temperament (14)

Profil

Trainerstil Demokratisch
Lizenz Kontinentale A
Entschlossenheit 11
Menschenführung 6
Motivation 9
Disziplin 10
Arbeitszufriedenheit
100%
Ermüdung
0%
Rolle Scout
Gehalt 58.6K p/W
Vertrag 14.03.2028

Leistung

Verhalten Gut
Trainingseffektivität
38%
Spielerentwicklung
45%
Verletzungsprävention
20%
Taktische Umsetzung
45%

Letzte Ereignisse

Nahm an einer Scouting-Besprechung teil 7T her
Nahm an einer Scouting-Besprechung teil 14T her
Spiel beobachtet 14T her
Nahm an einer Scouting-Besprechung teil 21T her
Spiel beobachtet 21T her
Nahm an einer Scouting-Besprechung teil 28T her
Spiel beobachtet 28T her
Spiel beobachtet 35T her

Aktuell beobachtet

82
Spieler Verein Status Fähigkeit Vertrauen Beobachtet Zuletzt beobachtet Letzte Stimme
Eric Bocat Stoke City Verloren 116 / 118 72% 1 28.06.2027 -
Adam Bakoune Ospitaletto Aktiv 102 / 107 40% 1 30.05.2027 -
Dylan Lawlor Cardiff City Aktiv 114 / 129 40% 1 30.05.2027 -
Jofre Torrents Ajax Aktiv 130 / 128 40% 6 28.05.2027 -
Ibrahim Maza Bayer Leverkusen Aktiv 152 / 163 40% 4 28.05.2027 -
Christos Mouzakitis Hull City Aktiv 133 / 132 40% 1 28.05.2027 -
Keagan Phiri Platinum Stars Aktiv 110 / 114 40% 3 27.05.2027 -
Ernie Weaver AFC Wimbledon Aktiv 101 / 109 40% 5 26.05.2027 -
Daniel Dennis Ikorodu City Aktiv 86 / 117 40% 1 26.05.2027 -
Million Manhoef Stoke City Aktiv 124 / 137 40% 1 24.05.2027 -
Milan van Ewijk Mansfield Town Aktiv 123 / 126 40% 1 24.05.2027 -
Mandla Erasmus SuperSport United Aktiv 118 / 106 40% 4 20.05.2027 -
Derensili Sanches Fernandes Huddersfield Town Aktiv 129 / 140 40% 3 20.05.2027 -
Joel Ezra Enyimba Aktiv 92 / 96 40% 1 20.05.2027 -
David Damboama El-Kanemi Warriors Aktiv 83 / 84 40% 1 20.05.2027 -
Amine Adli Bournemouth Aktiv 148 / 156 40% 1 20.05.2027 -
Kwadwo Baah Watford Aktiv 121 / 142 40% 3 19.05.2027 -
Cian Ashford Cardiff City Aktiv 120 / 121 40% 1 19.05.2027 -
Jack McGlynn Stoke City Aktiv 139 / 139 40% 2 16.05.2027 -
Ali Ahmed Norwich City Aktiv 124 / 119 40% 3 16.05.2027 -
Stanley Mills Oxford United Aktiv 120 / 131 40% 2 16.05.2027 -
Isaac Price West Bromwich Albion Aktiv 131 / 133 40% 1 14.05.2027 -
Zeidane Inoussa Swansea City Aktiv 124 / 132 40% 1 14.05.2027 -
Edwin Asamoah Berekum Chelsea Aktiv 75 / 95 40% 3 13.05.2027 -
Tom Fellows Southampton Aktiv 128 / 144 40% 3 13.05.2027 -
Davide Bartesaghi AC Milan Aktiv 131 / 140 40% 2 13.05.2027 -
Ethan Galbraith Swansea City Aktiv 137 / 146 40% 1 12.05.2027 -
Tomáš Rigo Stoke City Aktiv 137 / 144 40% 1 10.05.2027 -
Sascha Britschgi Padova Aktiv 113 / 117 40% 2 09.05.2027 -
Riley Owen Trento Aktiv 96 / 104 40% 4 09.05.2027 -
Hlompho Lorch Ajax Cape Town Aktiv 104 / 94 40% 3 09.05.2027 -
Kevin Fulham Aktiv 149 / 138 40% 2 09.05.2027 -
Percy Jali Free State Stars Aktiv 85 / 114 40% 1 07.05.2027 -
Josh Smith Accrington Stanley Aktiv 81 / 71 40% 1 07.05.2027 -
Finn Azaz Southampton Aktiv 125 / 133 40% 2 06.05.2027 -
Max Bird Birmingham Aktiv 128 / 118 40% 3 06.05.2027 -
Romano Schmid Frosinone Aktiv 147 / 134 40% 1 06.05.2027 -
Mohamed Belloumi Hull City Aktiv 131 / 124 40% 1 05.05.2027 -
Scott Twine Bristol City Aktiv 125 / 127 40% 2 04.05.2027 -
Lucas Bergvall Tottenham Verloren 151 / 155 40% 2 29.04.2027 -
Felix Afful Liberty Professionals Aktiv 76 / 74 40% 1 29.04.2027 -
Oswin Appollis Orlando Pirates Aktiv 114 / 128 40% 2 28.04.2027 -
Welington Southampton Aktiv 139 / 119 40% 2 27.04.2027 -
Malick Fofana Sunderland Aktiv 143 / 142 40% 1 27.04.2027 -
Jack Diamond Stockport County Aktiv 112 / 112 40% 1 27.04.2027 -
Mohamed-Ali Cho Hull City Aktiv 128 / 144 40% 1 26.04.2027 -
Christ Inao Oulaï Fiorentina Aktiv 139 / 130 40% 4 25.04.2027 -
Keagan Tau Ajax Cape Town Aktiv 96 / 88 40% 1 25.04.2027 -
Gonzalo Fulham Aktiv 137 / 149 40% 1 23.04.2027 -
Jason Knight Bristol City Aktiv 134 / 139 40% 1 23.04.2027 -
Imrân Louza Watford Aktiv 131 / 142 40% 1 21.04.2027 -
Bernardo Lima Porto Aktiv 96 / 121 40% 2 19.04.2027 -
Jan Bürger Gillingham Aktiv 112 / 112 40% 4 19.04.2027 -
Joel McGregor Swindon Town Aktiv 85 / 97 40% 1 19.04.2027 -
Matías Gómez Granada Aktiv 113 / 119 40% 2 18.04.2027 -
Kasey McAteer Ipswich Town Aktiv 134 / 135 40% 1 15.04.2027 -
David Ozoh Derby County Aktiv 113 / 123 40% 2 14.04.2027 -
Georginio Rutter Brighton Aktiv 139 / 148 40% 1 10.04.2027 -
Isaiah Jones Luton Town Aktiv 133 / 126 40% 1 10.04.2027 -
Kazunari Kita Real Sociedad Aktiv 92 / 110 40% 2 05.04.2027 -
Rivaldo Grobler Free State Stars Aktiv 90 / 127 40% 1 05.04.2027 -
Tshepang Moremi Orlando Pirates Aktiv 116 / 130 40% 2 03.04.2027 -
Morgan Whittaker Middlesbrough Aktiv 142 / 138 40% 2 02.04.2027 -
David Turnbull Cardiff City Aktiv 121 / 113 40% 2 02.04.2027 -
Mpho Khethang AS Police Aktiv 86 / 105 40% 2 31.03.2027 -
Joe Gelhardt Hull City Aktiv 136 / 125 40% 1 29.03.2027 -
Gonçalo Oliveira Benfica Aktiv 103 / 124 40% 1 29.03.2027 -
Richard Koné Queens Park Rangers Aktiv 116 / 121 40% 1 26.03.2027 -
Mikey Johnston West Bromwich Albion Aktiv 119 / 135 40% 1 26.03.2027 -
Jesús Rodríguez Como Aktiv 148 / 137 40% 1 26.03.2027 -
Giorgi Chakvetadze Watford Aktiv 137 / 121 40% 1 25.03.2027 -
Zane Albarus Cambridge United Aktiv 86 / 94 40% 1 24.03.2027 -
Johan Manzambi Newcastle United Aktiv 142 / 147 40% 1 24.03.2027 -
Adrien Truffert Bournemouth Aktiv 158 / 136 40% 2 23.03.2027 -
Zeki Amdouni Burnley Aktiv 135 / 123 40% 1 23.03.2027 -
Josh King Chelsea Verloren 129 / 149 40% 1 18.03.2027 -
Daniel Costa Sporting CP Aktiv 90 / 107 40% 1 18.03.2027 -
Ronwen Phiri Platinum Stars Aktiv 97 / 103 40% 1 17.03.2027 -
Cathal Heffernan Harrogate Town Aktiv 90 / 89 40% 1 07.03.2027 -
James Dornelly Peterborough United Aktiv 110 / 94 40% 1 05.03.2027 -
Martim Cunha Porto Aktiv 97 / 114 40% 1 04.03.2027 -
Liam Roberts Mansfield Town Aktiv 113 / 123 69% 1 07.01.2027 -